Time;durP1;ratioP1;P1;durP2;ratioP2;P2;SDS_P1;SDS_P2;PMS_P1;PMS_P2;Temp;Humidity;BMP_temperature;BMP_pressure;BME280_temperature;BME280_humidity;BME280_pressure;Samples;Min_cycle;Max_cycle;Signal;HPM_P1;HPM_P2
2022/07/15 00:02:13;;;;;;;11.32;2.10;;;;;;;18.81;48.23;94031.88;5126905;28;20015;-76
2022/07/15 00:04:38;;;;;;;3.80;1.48;;;;;;;18.79;48.62;94024.13;5126923;28;20313;-77
2022/07/15 00:07:04;;;;;;;8.25;1.42;;;;;;;18.75;48.38;94033.28;5126826;28;20018;-76
2022/07/15 00:12:14;;;;;;;2.22;1.17;;;;;;;18.67;47.81;94031.59;5126778;28;20023;-76
2022/07/15 00:14:40;;;;;;;5.38;1.50;;;;;;;18.62;48.07;94038.84;5126511;28;20019;-76
2022/07/15 00:17:06;;;;;;;5.90;2.22;;;;;;;18.56;48.54;94036.78;5126070;28;20039;-75
2022/07/15 00:19:34;;;;;;;6.18;2.50;;;;;;;18.51;48.95;94040.56;5126699;28;20319;-76
2022/07/15 00:22:00;;;;;;;4.88;1.48;;;;;;;18.45;49.48;94031.97;5126203;28;20079;-76
2022/07/15 00:24:28;;;;;;;8.30;2.20;;;;;;;18.41;49.83;94041.16;5126497;27;20314;-76
2022/07/15 00:26:53;;;;;;;7.97;3.05;;;;;;;18.36;50.07;94041.44;5126356;28;20027;-76
2022/07/15 00:29:18;;;;;;;7.45;3.45;;;;;;;18.39;49.83;94038.03;5126450;28;20030;-76
2022/07/15 00:31:44;;;;;;;4.10;2.10;;;;;;;18.42;49.61;94048.13;5126085;28;20321;-76
2022/07/15 00:34:09;;;;;;;5.55;2.50;;;;;;;18.43;49.62;94044.28;5126350;28;20031;-76
2022/07/15 00:36:35;;;;;;;4.45;2.13;;;;;;;18.41;50.97;94041.16;5126081;28;20344;-76
2022/07/15 00:39:00;;;;;;;6.88;1.60;;;;;;;18.43;50.49;94045.06;5125993;28;20027;-76
2022/07/15 00:41:26;;;;;;;8.32;2.90;;;;;;;18.42;50.68;94042.72;5125987;28;20267;-76
2022/07/15 00:43:51;;;;;;;4.70;1.80;;;;;;;18.38;51.25;94031.88;5126245;28;20030;-76
2022/07/15 00:46:21;;;;;;;7.57;1.80;;;;;;;18.37;51.31;94029.53;5124747;28;20011;-76
2022/07/15 00:48:47;;;;;;;14.32;1.98;;;;;;;18.38;51.31;94028.41;5125980;28;20054;-76
2022/07/15 00:51:12;;;;;;;3.78;1.65;;;;;;;18.37;51.30;94029.53;5125840;28;20024;-76
2022/07/15 00:53:39;;;;;;;4.07;1.70;;;;;;;18.25;51.65;94027.75;5125795;28;20019;-76
2022/07/15 00:56:08;;;;;;;2.85;1.50;;;;;;;18.21;51.23;94016.91;5125645;28;20087;-76
2022/07/15 00:58:37;;;;;;;4.75;1.85;;;;;;;18.19;51.87;94013.78;5125675;28;20064;-76
2022/07/15 01:01:03;;;;;;;3.95;1.85;;;;;;;18.14;51.79;94008.69;5125651;28;20042;-76
2022/07/15 01:03:31;;;;;;;2.83;1.63;;;;;;;18.05;52.06;94013.50;5125754;28;20035;-76
2022/07/15 01:05:57;;;;;;;4.97;1.80;;;;;;;18.06;52.16;94014.31;5125666;28;20082;-76
2022/07/15 01:08:23;;;;;;;3.35;1.20;;;;;;;18.00;51.63;94006.50;5125711;28;20035;-77
2022/07/15 01:10:50;;;;;;;4.47;1.40;;;;;;;17.98;51.52;94008.78;5124277;28;20225;-76
2022/07/15 01:13:16;;;;;;;4.53;2.10;;;;;;;17.88;51.70;94011.25;5125400;27;20027;-76
2022/07/15 01:15:42;;;;;;;7.13;2.30;;;;;;;17.86;52.55;94008.91;5125098;28;20088;-76
2022/07/15 01:18:07;;;;;;;5.97;1.65;;;;;;;17.86;51.91;94018.94;5125245;28;20047;-76
2022/07/15 01:20:33;;;;;;;5.05;1.65;;;;;;;17.84;51.87;94008.50;5125383;28;20072;-76
2022/07/15 01:22:59;;;;;;;4.63;1.50;;;;;;;17.86;51.94;94016.22;5125422;28;20023;-76
2022/07/15 01:25:26;;;;;;;2.50;1.27;;;;;;;17.77;51.73;94011.03;5125106;28;20046;-76
2022/07/15 01:27:51;;;;;;;4.32;2.05;;;;;;;17.73;52.05;94008.25;5125371;28;20034;-76
2022/07/15 01:30:17;;;;;;;13.15;1.90;;;;;;;17.69;51.83;94004.72;5125250;28;20225;-76
2022/07/15 01:32:43;;;;;;;3.78;1.65;;;;;;;17.69;51.75;94001.22;5124867;28;20221;-76
2022/07/15 01:35:09;;;;;;;2.55;1.38;;;;;;;17.64;52.01;93999.59;5125007;28;20023;-76
2022/07/15 01:37:34;;;;;;;4.82;1.75;;;;;;;17.60;52.87;94004.13;5124993;28;20031;-76
2022/07/15 01:40:00;;;;;;;3.78;1.83;;;;;;;17.56;52.95;93997.88;5125045;28;20093;-76
2022/07/15 01:42:25;;;;;;;2.45;1.40;;;;;;;17.52;53.04;93994.34;5124769;28;20072;-76
2022/07/15 01:44:51;;;;;;;3.35;1.52;;;;;;;17.44;53.19;93996.09;5124818;28;20024;-76
2022/07/15 01:47:17;;;;;;;2.15;1.20;;;;;;;17.40;53.54;93996.03;5124913;27;20016;-76
2022/07/15 01:49:42;;;;;;;7.47;1.42;;;;;;;17.36;53.76;93999.75;5124839;28;20027;-76
2022/07/15 01:52:09;;;;;;;6.45;1.77;;;;;;;17.35;53.64;94001.69;5123480;28;20256;-76
2022/07/15 01:54:35;;;;;;;3.17;1.73;;;;;;;17.31;53.84;94002.75;5124631;28;20042;-76
2022/07/15 01:57:01;;;;;;;4.07;1.80;;;;;;;17.25;53.98;94002.22;5124164;28;20206;-76
2022/07/15 01:59:27;;;;;;;4.00;1.85;;;;;;;17.21;54.56;93999.44;5124534;28;20069;-76
2022/07/15 02:01:54;;;;;;;10.55;2.20;;;;;;;17.17;54.38;94005.91;5124837;28;20073;-76
2022/07/15 02:04:19;;;;;;;6.80;2.85;;;;;;;17.15;54.07;94010.84;5124382;28;20019;-76
2022/07/15 02:06:45;;;;;;;5.95;2.92;;;;;;;17.12;54.55;94016.97;5124206;27;20026;-76
2022/07/15 02:09:11;;;;;;;6.15;2.50;;;;;;;17.09;55.03;94006.88;5124402;28;20023;-76
2022/07/15 02:11:37;;;;;;;8.93;3.63;;;;;;;17.03;55.31;94009.81;5124305;28;20019;-76
2022/07/15 02:14:03;;;;;;;12.18;3.85;;;;;;;16.99;55.45;94017.03;5124101;28;20250;-76
2022/07/15 02:16:30;;;;;;;9.13;3.28;;;;;;;16.99;55.95;94014.34;5124016;28;20058;-76
2022/07/15 02:18:56;;;;;;;7.00;2.80;;;;;;;16.97;55.89;94011.22;5124411;28;20042;-76
2022/07/15 02:21:21;;;;;;;12.32;3.58;;;;;;;16.93;55.92;94015.75;5124063;28;20023;-76
2022/07/15 02:23:47;;;;;;;9.75;3.55;;;;;;;16.88;55.88;94018.72;5123993;28;20032;-76
2022/07/15 02:26:13;;;;;;;9.32;3.88;;;;;;;16.86;56.46;94012.13;5124105;28;20053;-76
2022/07/15 02:28:39;;;;;;;8.27;3.28;;;;;;;16.81;56.55;94015.84;5124019;27;20023;-76
2022/07/15 02:31:05;;;;;;;6.47;3.30;;;;;;;16.77;56.52;94018.44;5123863;28;20023;-76
2022/07/15 02:33:31;;;;;;;7.05;3.25;;;;;;;16.73;56.95;94014.06;5124024;28;20039;-76
2022/07/15 02:35:56;;;;;;;6.13;3.22;;;;;;;16.69;56.91;94014.00;5123863;28;20028;-76
2022/07/15 02:38:22;;;;;;;13.68;4.35;;;;;;;16.63;56.92;94004.63;5123821;28;20079;-76
2022/07/15 02:40:48;;;;;;;10.23;3.47;;;;;;;16.64;57.18;94004.28;5123760;27;20068;-76
2022/07/15 02:43:14;;;;;;;9.88;4.40;;;;;;;16.64;56.82;94003.50;5123802;28;20011;-76
2022/07/15 02:45:40;;;;;;;9.88;4.30;;;;;;;16.61;57.32;94002.28;5122352;28;20195;-76
2022/07/15 02:48:18;;;;;;;12.23;3.92;;;;;;;16.60;57.51;94005.31;5123324;28;20045;-75
2022/07/15 02:50:44;;;;;;;11.52;4.18;;;;;;;16.61;57.20;94004.97;5123071;28;20016;-75
2022/07/15 02:53:10;;;;;;;9.38;4.78;;;;;;;16.60;57.47;94003.41;5122778;28;20043;-76
2022/07/15 02:55:35;;;;;;;11.32;4.60;;;;;;;16.56;57.76;94007.13;5123462;28;20020;-75
2022/07/15 02:58:02;;;;;;;10.90;5.20;;;;;;;16.54;58.00;93993.25;5123624;28;20090;-75
2022/07/15 03:00:27;;;;;;;17.95;5.22;;;;;;;16.54;58.28;93991.34;5123330;28;20031;-75
2022/07/15 03:02:52;;;;;;;12.40;4.55;;;;;;;16.55;58.25;93995.59;5123443;28;20080;-75
2022/07/15 03:05:18;;;;;;;11.57;5.13;;;;;;;16.53;58.42;93997.88;5123397;28;20398;-75
2022/07/15 03:07:45;;;;;;;12.43;4.60;;;;;;;16.52;58.74;93998.97;5123263;28;20043;-75
2022/07/15 03:10:11;;;;;;;19.98;5.38;;;;;;;16.53;59.02;94005.16;5122793;28;20245;-75
2022/07/15 03:12:37;;;;;;;13.32;5.25;;;;;;;16.52;58.91;94003.59;5123257;28;20024;-75
2022/07/15 03:15:03;;;;;;;15.68;4.97;;;;;;;16.51;59.13;94000.13;5123411;28;20077;-75
2022/07/15 03:17:29;;;;;;;13.32;4.50;;;;;;;16.48;59.40;93995.41;5123102;28;20044;-75
2022/07/15 03:19:55;;;;;;;12.75;4.47;;;;;;;16.51;59.19;93993.97;5123467;28;20023;-76
2022/07/15 03:22:22;;;;;;;8.82;4.18;;;;;;;16.50;59.37;93995.84;5123250;28;20221;-76
2022/07/15 03:24:48;;;;;;;11.25;4.35;;;;;;;16.48;59.24;93997.34;5123073;28;20060;-76
2022/07/15 03:27:14;;;;;;;9.55;4.85;;;;;;;16.48;59.71;93998.09;5123122;28;20317;-76
2022/07/15 03:29:40;;;;;;;12.05;4.65;;;;;;;16.43;59.68;94003.75;5122930;28;20229;-76
2022/07/15 03:32:06;;;;;;;9.13;4.20;;;;;;;16.42;59.40;93997.59;5123049;28;20028;-75
2022/07/15 03:34:32;;;;;;;13.65;5.22;;;;;;;16.40;59.53;93999.81;5122883;28;20043;-75
2022/07/15 03:36:59;;;;;;;15.98;5.78;;;;;;;16.41;58.93;93998.72;5122925;28;20038;-75
2022/07/15 03:39:25;;;;;;;15.85;5.03;;;;;;;16.39;58.56;94003.66;5122911;28;20028;-76
2022/07/15 03:41:50;;;;;;;10.40;4.72;;;;;;;16.42;58.86;94002.19;5122949;28;20151;-76
2022/07/15 03:44:17;;;;;;;10.85;4.10;;;;;;;16.46;58.46;93997.66;5122962;28;20023;-75
2022/07/15 03:46:45;;;;;;;8.70;3.90;;;;;;;16.46;58.84;93997.66;5122880;28;20090;-76
2022/07/15 03:49:14;;;;;;;12.95;4.13;;;;;;;16.49;58.91;94006.97;5122843;28;20025;-76
2022/07/15 03:51:40;;;;;;;11.57;4.68;;;;;;;16.53;58.86;94005.94;5122733;28;20095;-76
2022/07/15 03:54:06;;;;;;;10.70;4.93;;;;;;;16.57;58.18;94004.09;5122831;28;20015;-76
2022/07/15 03:56:32;;;;;;;13.02;5.07;;;;;;;16.59;58.46;93998.38;5122766;28;20096;-76
2022/07/15 03:58:58;;;;;;;11.88;4.75;;;;;;;16.64;58.70;94001.56;5123151;28;20317;-76
2022/07/15 04:01:24;;;;;;;14.77;4.80;;;;;;;16.62;58.84;94008.44;5122826;28;20024;-76
2022/07/15 04:03:50;;;;;;;9.73;4.18;;;;;;;16.63;59.30;94010.03;5122727;28;20023;-76
2022/07/15 04:06:16;;;;;;;10.50;3.92;;;;;;;16.58;59.49;94005.66;5122618;28;20270;-76
2022/07/15 04:08:43;;;;;;;12.70;4.93;;;;;;;16.60;59.88;94008.78;5122895;28;20195;-75
2022/07/15 04:11:09;;;;;;;11.05;4.53;;;;;;;16.53;60.16;94014.00;5122861;28;20031;-76
2022/07/15 04:13:35;;;;;;;20.65;4.93;;;;;;;16.48;59.56;94011.56;5122593;28;20318;-76
2022/07/15 04:16:00;;;;;;;15.35;4.57;;;;;;;16.44;59.57;94011.50;5122442;28;20038;-76
2022/07/15 04:18:26;;;;;;;14.80;5.10;;;;;;;16.45;60.29;94013.03;5122910;28;20026;-75
2022/07/15 04:20:51;;;;;;;18.85;5.30;;;;;;;16.50;59.60;94013.91;5124907;28;20391;-75
2022/07/15 04:23:16;;;;;;;15.38;5.55;;;;;;;16.55;60.09;94010.97;5126572;28;20097;-76
2022/07/15 04:25:42;;;;;;;13.35;5.50;;;;;;;16.60;60.25;94013.38;5126521;28;20045;-75
2022/07/15 04:28:08;;;;;;;12.80;5.22;;;;;;;16.67;60.32;94012.78;5126489;28;20039;-75
2022/07/15 04:30:33;;;;;;;9.90;6.00;;;;;;;16.76;59.88;94013.41;5126272;28;20027;-75
2022/07/15 04:32:59;;;;;;;20.80;5.72;;;;;;;16.81;60.12;94019.34;5126516;28;20272;-75
2022/07/15 04:35:24;;;;;;;13.45;5.55;;;;;;;16.90;60.53;94015.69;5126336;28;21875;-75
2022/07/15 04:37:50;;;;;;;41.33;7.70;;;;;;;16.99;60.20;94024.34;5126208;28;20043;-76
2022/07/15 04:40:15;;;;;;;23.90;6.95;;;;;;;17.10;59.24;94020.00;5126067;28;20020;-75
2022/07/15 04:42:41;;;;;;;37.72;6.13;;;;;;;17.18;59.19;94013.63;5126045;28;20031;-75
2022/07/15 04:45:07;;;;;;;22.50;5.82;;;;;;;17.27;58.69;94023.44;5125997;28;20060;-75
2022/07/15 04:47:32;;;;;;;22.42;6.03;;;;;;;17.30;58.85;94018.13;5125959;28;20030;-75
2022/07/15 04:52:43;;;;;;;20.48;6.03;;;;;;;17.51;58.10;94006.25;5125944;28;20216;-76
2022/07/15 04:55:08;;;;;;;20.83;5.90;;;;;;;17.61;57.79;94011.09;5125891;28;20035;-76
2022/07/15 04:57:34;;;;;;;38.63;7.15;;;;;;;17.69;57.80;94012.00;5125755;28;20061;-76
2022/07/15 04:59:59;;;;;;;24.95;6.75;;;;;;;17.73;57.41;94013.66;5125939;28;20023;-76
2022/07/15 05:02:25;;;;;;;24.35;6.18;;;;;;;17.79;57.10;94011.47;5125618;28;20027;-76
2022/07/15 05:04:51;;;;;;;14.52;5.25;;;;;;;17.87;56.49;94017.78;5125709;27;20209;-76
2022/07/15 05:07:16;;;;;;;15.63;6.20;;;;;;;17.89;56.91;94018.19;5125417;28;20254;-76
2022/07/15 05:09:42;;;;;;;21.38;6.43;;;;;;;17.99;56.84;94014.94;5125669;28;20023;-76
2022/07/15 05:12:07;;;;;;;16.90;5.05;;;;;;;18.02;56.43;94017.72;5125719;28;20034;-76
2022/07/15 05:14:33;;;;;;;7.28;4.43;;;;;;;18.13;56.19;94015.22;5125430;28;20087;-76
2022/07/15 05:16:58;;;;;;;16.35;4.55;;;;;;;18.18;55.70;94024.94;5125255;28;20333;-76
2022/07/15 05:19:23;;;;;;;14.00;4.00;;;;;;;18.16;55.63;94019.13;5125602;27;20023;-76
2022/07/15 05:21:49;;;;;;;14.18;4.50;;;;;;;18.24;55.33;94018.13;5125530;28;20206;-75
2022/07/15 05:24:14;;;;;;;9.77;3.55;;;;;;;18.20;55.27;94020.75;5125214;28;20065;-75
2022/07/15 05:26:40;;;;;;;12.07;4.60;;;;;;;18.32;54.93;94010.91;5125230;28;20332;-76
2022/07/15 05:29:05;;;;;;;14.27;4.03;;;;;;;18.42;54.42;94023.84;5125274;28;20037;-76
2022/07/15 05:31:31;;;;;;;19.08;4.10;;;;;;;18.51;54.47;94020.91;5124634;27;20031;-76
2022/07/15 05:33:56;;;;;;;11.98;3.45;;;;;;;18.62;53.89;94017.25;5125287;28;20024;-76
2022/07/15 05:36:22;;;;;;;10.10;3.88;;;;;;;18.69;53.86;94013.13;5124892;28;20043;-75
2022/07/15 05:38:47;;;;;;;13.27;3.50;;;;;;;18.80;53.85;94019.50;5124976;28;20023;-75
2022/07/15 05:41:12;;;;;;;11.20;4.15;;;;;;;18.91;53.14;94015.06;5124998;28;20034;-75
2022/07/15 05:43:38;;;;;;;18.73;4.00;;;;;;;19.00;52.53;94012.88;5124944;28;20055;-75
2022/07/15 05:46:05;;;;;;;17.17;3.42;;;;;;;19.13;53.80;94010.75;5124843;28;20023;-75
2022/07/15 05:48:30;;;;;;;13.48;3.15;;;;;;;19.22;51.06;94010.50;5124880;27;20053;-75
2022/07/15 05:50:56;;;;;;;13.65;3.00;;;;;;;19.27;51.06;94015.56;5124794;28;20113;-75
2022/07/15 05:53:22;;;;;;;10.27;3.03;;;;;;;19.33;50.63;94016.81;5124512;28;20023;-75
2022/07/15 05:55:48;;;;;;;19.40;2.65;;;;;;;19.34;50.61;94012.22;5124586;27;20023;-75
2022/07/15 05:58:13;;;;;;;8.20;2.90;;;;;;;19.46;50.03;94020.09;5124508;28;20303;-75
2022/07/15 06:00:39;;;;;;;16.88;3.40;;;;;;;19.52;50.31;94012.44;5124649;28;20027;-75
2022/07/15 06:03:05;;;;;;;12.38;3.40;;;;;;;19.58;50.52;94013.69;5124514;28;20304;-75
2022/07/15 06:05:31;;;;;;;16.23;2.83;;;;;;;19.68;49.15;94013.03;5124481;28;20027;-75
2022/07/15 06:07:57;;;;;;;8.88;1.98;;;;;;;19.76;46.64;94014.75;5124479;28;20019;-75
2022/07/15 06:10:22;;;;;;;9.95;2.03;;;;;;;19.85;46.89;94017.16;5123004;28;20028;-75
2022/07/15 06:12:48;;;;;;;8.77;2.17;;;;;;;19.90;47.77;94016.81;5123885;28;20015;-75
2022/07/15 06:15:14;;;;;;;8.80;2.35;;;;;;;19.97;49.72;94013.44;5123965;28;20023;-75
2022/07/15 06:17:39;;;;;;;17.42;2.50;;;;;;;19.97;47.78;94021.56;5124189;28;20225;-75
2022/07/15 06:20:06;;;;;;;22.27;2.78;;;;;;;20.09;47.30;94025.91;5124019;28;20027;-75
2022/07/15 06:22:32;;;;;;;11.35;2.65;;;;;;;20.16;48.26;94026.78;5124240;28;20015;-75
2022/07/15 06:24:57;;;;;;;12.65;2.20;;;;;;;20.18;47.77;94016.38;5123877;28;20081;-75
2022/07/15 06:27:23;;;;;;;15.80;2.97;;;;;;;20.24;47.72;94022.22;5123781;28;20065;-75
2022/07/15 06:29:49;;;;;;;15.23;3.03;;;;;;;20.35;47.22;94016.94;5123949;28;20050;-75
2022/07/15 06:32:15;;;;;;;7.03;2.72;;;;;;;20.30;48.19;94025.41;5123910;28;20027;-75
2022/07/15 06:34:41;;;;;;;10.02;2.33;;;;;;;20.39;48.10;94023.16;5123903;28;20094;-75
2022/07/15 06:37:06;;;;;;;17.33;3.35;;;;;;;20.46;47.84;94025.19;5123804;28;20023;-76
2022/07/15 06:39:32;;;;;;;17.55;2.92;;;;;;;20.40;48.39;94016.59;5124097;28;20031;-77
2022/07/15 06:41:58;;;;;;;11.70;2.80;;;;;;;20.52;48.23;94024.47;5123733;28;20036;-76
2022/07/15 06:44:23;;;;;;;13.85;3.55;;;;;;;20.67;47.58;94027.34;5122649;28;20054;-76
2022/07/15 06:46:49;;;;;;;17.23;3.50;;;;;;;20.79;46.98;94027.06;5123993;28;20024;-76
2022/07/15 06:49:14;;;;;;;13.93;2.83;;;;;;;20.86;47.42;94012.78;5123810;28;20016;-76
2022/07/15 06:51:40;;;;;;;11.35;2.38;;;;;;;21.00;47.05;94015.59;5123660;28;20020;-75
2022/07/15 06:54:07;;;;;;;22.65;2.63;;;;;;;21.03;46.16;94015.63;5123451;28;20087;-76
2022/07/15 06:56:32;;;;;;;10.88;2.38;;;;;;;20.96;47.04;94015.56;5123446;28;20027;-76
2022/07/15 06:58:58;;;;;;;10.00;2.70;;;;;;;21.07;47.54;94018.38;5123442;28;20032;-76
2022/07/15 07:01:23;;;;;;;18.40;2.78;;;;;;;21.21;45.92;94015.00;5123422;28;20026;-75
2022/07/15 07:03:49;;;;;;;13.07;2.58;;;;;;;21.29;45.20;94016.59;5123590;27;20016;-75
2022/07/15 07:06:14;;;;;;;23.38;3.40;;;;;;;21.37;45.26;94014.69;5123364;28;20090;-75
2022/07/15 07:08:40;;;;;;;11.77;2.28;;;;;;;21.43;45.34;94008.59;5123311;28;20057;-75
2022/07/15 07:11:05;;;;;;;13.38;3.05;;;;;;;21.57;45.10;94017.94;5123441;28;20043;-75
2022/07/15 07:13:31;;;;;;;9.27;3.03;;;;;;;21.67;44.27;94008.31;5123390;28;20028;-75
2022/07/15 07:15:57;;;;;;;7.97;1.98;;;;;;;21.79;43.80;94018.84;5123209;28;20103;-76
2022/07/15 07:18:22;;;;;;;11.65;2.38;;;;;;;21.91;43.80;94006.88;5123318;28;20027;-75
2022/07/15 07:20:48;;;;;;;14.88;2.47;;;;;;;22.08;44.81;94008.09;5123370;28;20250;-75
2022/07/15 07:23:13;;;;;;;10.63;2.55;;;;;;;22.26;45.71;94005.47;5122041;28;20047;-75
2022/07/15 07:25:39;;;;;;;13.27;3.00;;;;;;;22.39;44.50;94003.97;5123116;28;20070;-75
2022/07/15 07:28:04;;;;;;;11.52;2.80;;;;;;;22.52;44.77;94002.44;5123334;28;20043;-76
2022/07/15 07:30:30;;;;;;;12.07;2.65;;;;;;;22.63;44.14;94000.53;5123177;28;20098;-75
2022/07/15 07:32:56;;;;;;;13.85;2.92;;;;;;;22.78;43.02;93998.59;5123137;28;20036;-75
2022/07/15 07:35:22;;;;;;;8.25;2.25;;;;;;;22.87;43.11;94000.91;5122996;28;20100;-75
2022/07/15 07:37:47;;;;;;;12.90;2.67;;;;;;;22.94;42.14;94003.66;5123241;28;20085;-75
2022/07/15 07:40:12;;;;;;;6.93;2.50;;;;;;;22.92;40.95;94000.53;5123146;28;20035;-75
2022/07/15 07:42:38;;;;;;;9.02;1.98;;;;;;;22.99;41.13;93997.81;5123014;28;20034;-76
2022/07/15 07:45:05;;;;;;;13.20;2.25;;;;;;;23.06;41.18;93999.78;5123315;28;20030;-76
2022/07/15 07:47:37;;;;;;;10.88;2.20;;;;;;;23.19;40.79;94002.88;5123196;28;20068;-75
2022/07/15 07:50:04;;;;;;;7.37;2.13;;;;;;;23.20;40.59;93999.78;5123087;28;20024;-75
2022/07/15 07:52:29;;;;;;;4.55;2.08;;;;;;;23.32;40.36;94011.41;5123300;28;20352;-76
2022/07/15 07:54:55;;;;;;;6.72;2.28;;;;;;;23.35;40.65;94003.25;5123940;28;20033;-75
2022/07/15 07:57:21;;;;;;;4.60;2.38;;;;;;;23.44;39.28;94000.13;5126875;28;20027;-75
2022/07/15 07:59:46;;;;;;;8.52;2.00;;;;;;;23.43;38.85;94007.50;5127229;28;20039;-75
2022/07/15 08:02:11;;;;;;;8.40;2.03;;;;;;;23.56;38.62;94013.31;5126752;28;20019;-75
2022/07/15 08:04:38;;;;;;;8.98;2.33;;;;;;;23.58;39.66;93997.38;5126727;28;20026;-75
2022/07/15 08:07:06;;;;;;;6.93;2.10;;;;;;;23.61;39.21;94001.25;5126884;28;20086;-75
2022/07/15 08:09:31;;;;;;;5.80;1.67;;;;;;;23.65;38.29;93993.88;5126792;28;20027;-75
2022/07/15 08:11:56;;;;;;;11.07;2.30;;;;;;;23.70;37.18;94004.34;5126669;28;20241;-76
2022/07/15 08:14:22;;;;;;;15.90;2.58;;;;;;;23.71;37.17;94000.47;5126482;28;20302;-75
2022/07/15 08:16:48;;;;;;;13.30;2.17;;;;;;;23.71;38.91;93986.84;5126510;28;20240;-75
2022/07/15 08:19:15;;;;;;;7.88;2.10;;;;;;;23.77;38.58;93988.03;5126767;28;20020;-75
2022/07/15 08:21:41;;;;;;;7.85;1.98;;;;;;;23.86;36.94;93995.00;5126161;28;20046;-76
2022/07/15 08:24:07;;;;;;;15.05;1.88;;;;;;;23.93;36.99;93992.25;5126644;28;20086;-76
2022/07/15 08:26:32;;;;;;;5.28;1.85;;;;;;;24.05;36.29;93986.34;5126573;28;20030;-75
2022/07/15 08:28:58;;;;;;;7.30;2.28;;;;;;;24.09;36.63;93986.34;5126469;28;20034;-76
2022/07/15 08:31:23;;;;;;;5.90;1.73;;;;;;;24.06;37.73;93987.13;5126268;28;20027;-76
2022/07/15 08:33:49;;;;;;;10.77;2.10;;;;;;;24.09;37.71;93980.91;5126248;28;20061;-75
2022/07/15 08:36:14;;;;;;;6.65;2.15;;;;;;;24.21;37.37;93989.38;5126229;28;20024;-75
2022/07/15 08:38:40;;;;;;;6.55;1.92;;;;;;;24.28;36.96;93987.78;5126148;28;20047;-76
2022/07/15 08:41:06;;;;;;;7.82;2.17;;;;;;;24.32;35.88;93988.56;5126475;28;20221;-76
2022/07/15 08:43:32;;;;;;;12.85;5.28;;;;;;;24.35;36.03;93985.03;5126225;28;20041;-75
2022/07/15 08:45:58;;;;;;;15.38;3.08;;;;;;;24.40;35.56;93982.69;5126065;28;20055;-76
2022/07/15 08:48:28;;;;;;;12.52;2.85;;;;;;;24.38;36.07;93970.63;5126053;28;20031;-75
2022/07/15 08:50:55;;;;;;;6.57;2.15;;;;;;;24.33;35.82;93979.22;5125940;28;20368;-76
2022/07/15 08:53:21;;;;;;;8.70;2.78;;;;;;;24.39;35.17;93974.91;5125985;28;20023;-75
2022/07/15 08:55:47;;;;;;;12.27;4.07;;;;;;;24.50;35.28;93972.91;5125737;28;20343;-76
2022/07/15 08:58:13;;;;;;;11.50;5.63;;;;;;;24.66;35.64;93974.38;5125902;28;20020;-75
2022/07/15 09:00:38;;;;;;;9.10;2.58;;;;;;;24.78;35.04;93979.34;5125654;28;20260;-75
2022/07/15 09:03:05;;;;;;;8.90;2.00;;;;;;;24.93;34.45;93982.72;5125804;28;20314;-75
2022/07/15 09:05:33;;;;;;;5.82;1.80;;;;;;;25.03;34.19;93984.59;5125789;28;20019;-75
2022/07/15 09:08:07;;;;;;;13.25;1.85;;;;;;;25.20;34.03;93980.19;5124715;28;20030;-75
2022/07/15 09:10:47;;;;;;;7.53;1.75;;;;;;;25.35;33.52;93981.59;5125966;28;20044;-76
2022/07/15 09:13:30;;;;;;;3.53;1.77;;;;;;;25.50;33.56;93979.50;5125736;28;20098;-75
2022/07/15 09:16:04;;;;;;;6.63;1.92;;;;;;;25.62;31.99;93975.47;5125451;28;20032;-76
2022/07/15 09:18:33;;;;;;;7.75;1.67;;;;;;;25.71;31.95;93969.56;5125511;28;20023;-76
2022/07/15 09:20:59;;;;;;;12.68;2.60;;;;;;;25.85;32.06;93969.41;5125124;28;20042;-75
2022/07/15 09:23:30;;;;;;;4.88;1.60;;;;;;;25.97;32.57;93965.34;5125360;28;20095;-75
2022/07/15 09:26:40;;;;;;;6.75;1.80;;;;;;;26.09;31.94;93964.81;5125454;28;20034;-75
2022/07/15 09:37:59;;;;;;;7.05;2.05;;;;;;;26.23;29.96;93967.34;5124880;28;20022;-75
2022/07/15 09:40:24;;;;;;;5.50;1.80;;;;;;;26.22;30.01;93963.09;5125107;28;20019;-75
2022/07/15 09:43:05;;;;;;;10.60;1.92;;;;;;;26.28;28.97;93963.41;5124887;28;20072;-75
2022/07/15 09:45:32;;;;;;;5.22;1.80;;;;;;;26.22;29.26;93960.34;5124959;28;20015;-75
2022/07/15 09:48:07;;;;;;;4.32;1.38;;;;;;;26.14;29.12;93964.38;5124931;28;20028;-75
2022/07/15 09:50:37;;;;;;;5.15;1.42;;;;;;;26.11;30.96;93967.91;5124756;27;20099;-76
2022/07/15 09:53:04;;;;;;;4.32;1.58;;;;;;;26.09;30.57;93967.53;5123648;28;20404;-75
2022/07/15 09:55:30;;;;;;;2.80;1.40;;;;;;;26.10;30.61;93966.38;5124708;28;20024;-75
2022/07/15 09:57:59;;;;;;;7.97;2.15;;;;;;;26.08;31.05;93960.53;5124585;28;20019;-75
2022/07/15 10:00:24;;;;;;;7.40;1.73;;;;;;;26.14;32.07;93958.91;5124672;28;20019;-75
2022/07/15 10:02:51;;;;;;;7.20;2.28;;;;;;;26.21;31.68;93955.31;5124588;28;20331;-76
2022/07/15 10:05:16;;;;;;;3.20;1.40;;;;;;;26.18;31.22;93956.91;5124587;28;20063;-76
2022/07/15 10:07:43;;;;;;;4.25;1.77;;;;;;;26.17;30.30;93963.53;5124764;28;20023;-76
2022/07/15 10:10:09;;;;;;;11.88;1.88;;;;;;;26.18;30.54;93959.63;5124661;28;20020;-76
2022/07/15 10:12:53;;;;;;;6.60;1.70;;;;;;;26.28;30.15;93949.75;5124409;28;20372;-76
2022/07/15 10:16:15;;;;;;;4.38;1.80;;;;;;;26.32;30.15;93958.66;5124405;28;20100;-76
2022/07/15 10:19:02;;;;;;;3.95;1.63;;;;;;;26.45;30.95;93947.94;5101969;28;20039;-75
2022/07/15 10:22:02;;;;;;;8.73;1.67;;;;;;;26.58;29.73;93951.69;5124394;28;20872;-76
2022/07/15 10:25:02;;;;;;;13.93;2.03;;;;;;;26.60;30.07;93946.59;5124125;28;20091;-77
2022/07/15 10:27:54;;;;;;;5.63;1.27;;;;;;;26.56;29.08;93951.31;5123904;28;20020;-76
2022/07/15 10:30:21;;;;;;;3.03;1.27;;;;;;;26.61;30.23;93950.84;5124219;28;20045;-76
2022/07/15 10:33:05;;;;;;;3.00;1.20;;;;;;;26.75;29.38;93946.38;5123854;27;20135;-76
2022/07/15 10:35:51;;;;;;;4.07;1.45;;;;;;;26.86;29.42;93948.94;5123692;28;20266;-76
2022/07/15 10:38:23;;;;;;;10.20;1.52;;;;;;;26.90;29.03;93944.94;5123837;28;20075;-76
2022/07/15 10:40:56;;;;;;;5.75;1.50;;;;;;;27.03;29.64;93945.13;5123912;28;20036;-75
2022/07/15 10:43:37;;;;;;;3.40;1.45;;;;;;;27.14;29.03;93937.50;5123747;28;20027;-75
2022/07/15 10:46:04;;;;;;;9.57;1.88;;;;;;;27.17;29.37;93941.34;5123658;28;20076;-76
2022/07/15 10:48:30;;;;;;;5.82;1.75;;;;;;;27.27;28.95;93937.69;5123690;28;20032;-76
2022/07/15 10:50:56;;;;;;;3.33;1.60;;;;;;;27.35;29.06;93927.41;5123721;28;20047;-76
2022/07/15 10:53:25;;;;;;;3.17;1.52;;;;;;;27.48;30.32;93924.81;5123726;28;20073;-76
2022/07/15 10:55:51;;;;;;;5.47;1.50;;;;;;;27.63;30.07;93930.78;5123557;28;20090;-75
2022/07/15 10:58:17;;;;;;;3.13;1.40;;;;;;;27.60;28.85;93926.94;5123459;28;20084;-75
2022/07/15 11:00:43;;;;;;;4.63;1.50;;;;;;;27.54;28.63;93923.91;5123455;28;20024;-75
2022/07/15 11:03:13;;;;;;;8.27;2.03;;;;;;;27.72;29.30;93929.06;5123675;28;20028;-76
2022/07/15 11:05:46;;;;;;;5.25;1.38;;;;;;;27.95;28.62;93925.47;5123441;28;20095;-76
2022/07/15 11:08:33;;;;;;;6.63;1.50;;;;;;;28.16;28.68;93918.75;5123526;28;20023;-76
2022/07/15 11:11:13;;;;;;;5.20;1.60;;;;;;;28.34;28.37;93923.09;5123440;28;20076;-76
2022/07/15 11:13:40;;;;;;;4.20;1.63;;;;;;;28.46;28.70;93916.19;5123756;28;20201;-76
2022/07/15 11:16:09;;;;;;;6.25;1.92;;;;;;;28.48;26.44;93917.28;5122971;28;20039;-76
2022/07/15 11:18:57;;;;;;;13.32;2.65;;;;;;;28.37;27.13;93922.22;5122084;28;20094;-76
2022/07/15 11:21:23;;;;;;;5.68;1.55;;;;;;;28.36;25.67;93915.22;5122848;28;20321;-76
2022/07/15 11:23:51;;;;;;;73.07;41.80;;;;;;;28.39;26.71;93909.66;5123366;28;20064;-76
2022/07/15 11:26:17;;;;;;;7.18;2.53;;;;;;;28.46;25.67;93913.44;5123248;28;20095;-76
2022/07/15 11:29:00;;;;;;;9.20;1.73;;;;;;;28.42;26.47;93903.31;5123306;28;20094;-76
2022/07/15 11:31:25;;;;;;;4.03;1.35;;;;;;;28.36;25.31;93909.72;5122739;28;20047;-76
2022/07/15 11:33:55;;;;;;;8.32;1.52;;;;;;;28.38;26.34;93905.38;5123173;28;20032;-76
2022/07/15 11:36:22;;;;;;;4.72;1.58;;;;;;;28.42;26.90;93905.28;5122887;28;20031;-75
2022/07/15 11:38:48;;;;;;;5.97;1.50;;;;;;;28.54;25.97;93898.41;5123147;28;20022;-75
2022/07/15 11:46:45;;;;;;;5.97;1.50;;;;;;;28.92;25.79;93898.66;5122951;28;20393;-75
2022/07/15 11:49:11;;;;;;;4.90;1.40;;;;;;;29.11;24.20;93902.50;5123064;28;20310;-76
2022/07/15 11:51:37;;;;;;;5.95;1.35;;;;;;;29.32;24.67;93892.94;5122766;28;20023;-75